sensor_id;sensor_type;location;lat;lon;timestamp;temperature;humidity
57564;DHT22;43400;45.926;6.724;2023-04-01T00:02:15;6.00;99.90
57564;DHT22;43400;45.926;6.724;2023-04-01T00:04:47;5.90;99.90
57564;DHT22;43400;45.926;6.724;2023-04-01T00:07:18;5.80;99.90
57564;DHT22;43400;45.926;6.724;2023-04-01T00:09:50;5.70;99.90
57564;DHT22;43400;45.926;6.724;2023-04-01T00:12:23;5.60;99.90
57564;DHT22;43400;45.926;6.724;2023-04-01T00:14:55;5.60;99.90
57564;DHT22;43400;45.926;6.724;2023-04-01T00:17:27;5.60;99.90
57564;DHT22;43400;45.926;6.724;2023-04-01T00:19:59;5.70;99.90
57564;DHT22;43400;45.926;6.724;2023-04-01T00:22:31;5.80;99.90
57564;DHT22;43400;45.926;6.724;2023-04-01T00:25:04;5.80;99.90
57564;DHT22;43400;45.926;6.724;2023-04-01T00:27:37;5.80;99.90
57564;DHT22;43400;45.926;6.724;2023-04-01T00:30:09;5.80;99.90
57564;DHT22;43400;45.926;6.724;2023-04-01T00:32:41;5.70;99.90
57564;DHT22;43400;45.926;6.724;2023-04-01T00:35:14;5.70;99.90
57564;DHT22;43400;45.926;6.724;2023-04-01T00:37:46;5.70;99.90
57564;DHT22;43400;45.926;6.724;2023-04-01T00:40:30;5.80;99.90
57564;DHT22;43400;45.926;6.724;2023-04-01T00:43:03;5.70;99.90
57564;DHT22;43400;45.926;6.724;2023-04-01T00:45:42;5.80;99.90
57564;DHT22;43400;45.926;6.724;2023-04-01T00:50:49;5.90;99.90
57564;DHT22;43400;45.926;6.724;2023-04-01T00:53:23;5.90;99.90
57564;DHT22;43400;45.926;6.724;2023-04-01T00:56:11;5.80;99.90
57564;DHT22;43400;45.926;6.724;2023-04-01T00:58:51;5.70;99.90
57564;DHT22;43400;45.926;6.724;2023-04-01T01:01:24;5.70;99.90
57564;DHT22;43400;45.926;6.724;2023-04-01T01:03:56;5.70;99.90
57564;DHT22;43400;45.926;6.724;2023-04-01T01:06:47;5.70;99.90
57564;DHT22;43400;45.926;6.724;2023-04-01T01:15:05;5.70;99.90
57564;DHT22;43400;45.926;6.724;2023-04-01T01:20:39;5.80;99.90
57564;DHT22;43400;45.926;6.724;2023-04-01T01:26:40;5.90;99.90
57564;DHT22;43400;45.926;6.724;2023-04-01T01:37:46;5.90;99.90
57564;DHT22;43400;45.926;6.724;2023-04-01T01:40:18;5.90;99.90
57564;DHT22;43400;45.926;6.724;2023-04-01T01:42:53;6.00;99.90
57564;DHT22;43400;45.926;6.724;2023-04-01T01:45:27;6.00;99.90
57564;DHT22;43400;45.926;6.724;2023-04-01T01:48:02;6.00;99.90
57564;DHT22;43400;45.926;6.724;2023-04-01T01:50:36;6.00;99.90
57564;DHT22;43400;45.926;6.724;2023-04-01T01:53:11;6.00;99.90
57564;DHT22;43400;45.926;6.724;2023-04-01T01:55:45;6.00;99.90
57564;DHT22;43400;45.926;6.724;2023-04-01T01:58:37;6.00;99.90
57564;DHT22;43400;45.926;6.724;2023-04-01T02:01:15;6.10;99.90
57564;DHT22;43400;45.926;6.724;2023-04-01T02:03:48;6.10;99.90
57564;DHT22;43400;45.926;6.724;2023-04-01T02:06:28;6.00;99.90
57564;DHT22;43400;45.926;6.724;2023-04-01T02:09:10;6.00;99.90
57564;DHT22;43400;45.926;6.724;2023-04-01T02:11:58;6.10;99.90
57564;DHT22;43400;45.926;6.724;2023-04-01T02:14:42;6.10;99.90
57564;DHT22;43400;45.926;6.724;2023-04-01T02:17:20;6.00;99.90
57564;DHT22;43400;45.926;6.724;2023-04-01T02:20:09;5.90;99.90
57564;DHT22;43400;45.926;6.724;2023-04-01T02:22:49;5.80;99.90
57564;DHT22;43400;45.926;6.724;2023-04-01T02:25:29;5.80;99.90
57564;DHT22;43400;45.926;6.724;2023-04-01T02:28:04;5.80;99.90
57564;DHT22;43400;45.926;6.724;2023-04-01T02:30:38;5.80;99.90
57564;DHT22;43400;45.926;6.724;2023-04-01T02:33:11;5.90;99.90
57564;DHT22;43400;45.926;6.724;2023-04-01T02:35:42;6.00;99.90
57564;DHT22;43400;45.926;6.724;2023-04-01T02:38:14;6.00;99.90
57564;DHT22;43400;45.926;6.724;2023-04-01T02:40:56;5.90;99.90
57564;DHT22;43400;45.926;6.724;2023-04-01T02:43:28;5.90;99.90
57564;DHT22;43400;45.926;6.724;2023-04-01T02:46:00;5.90;99.90
57564;DHT22;43400;45.926;6.724;2023-04-01T02:48:31;5.90;99.90
57564;DHT22;43400;45.926;6.724;2023-04-01T02:51:03;5.90;99.90
57564;DHT22;43400;45.926;6.724;2023-04-01T02:53:35;5.90;99.90
57564;DHT22;43400;45.926;6.724;2023-04-01T02:56:06;5.90;99.90
57564;DHT22;43400;45.926;6.724;2023-04-01T02:58:38;6.00;99.90
57564;DHT22;43400;45.926;6.724;2023-04-01T03:01:09;6.00;99.90
57564;DHT22;43400;45.926;6.724;2023-04-01T03:03:41;6.10;99.90
57564;DHT22;43400;45.926;6.724;2023-04-01T03:06:15;6.00;99.90
57564;DHT22;43400;45.926;6.724;2023-04-01T03:08:46;6.10;99.90
57564;DHT22;43400;45.926;6.724;2023-04-01T03:11:18;6.10;99.90
57564;DHT22;43400;45.926;6.724;2023-04-01T03:13:50;6.00;99.90
57564;DHT22;43400;45.926;6.724;2023-04-01T03:16:21;5.90;99.90
57564;DHT22;43400;45.926;6.724;2023-04-01T03:18:52;5.80;99.90
57564;DHT22;43400;45.926;6.724;2023-04-01T03:21:24;5.90;99.90
57564;DHT22;43400;45.926;6.724;2023-04-01T03:23:56;5.90;99.90
57564;DHT22;43400;45.926;6.724;2023-04-01T03:26:27;5.90;99.90
57564;DHT22;43400;45.926;6.724;2023-04-01T03:28:59;5.80;99.90
57564;DHT22;43400;45.926;6.724;2023-04-01T03:31:31;5.80;99.90
57564;DHT22;43400;45.926;6.724;2023-04-01T03:34:02;5.90;99.90
57564;DHT22;43400;45.926;6.724;2023-04-01T03:36:34;5.90;99.90
57564;DHT22;43400;45.926;6.724;2023-04-01T03:39:05;5.80;99.90
57564;DHT22;43400;45.926;6.724;2023-04-01T03:41:37;5.80;99.90
57564;DHT22;43400;45.926;6.724;2023-04-01T03:44:08;5.70;99.90
57564;DHT22;43400;45.926;6.724;2023-04-01T03:46:40;5.80;99.90
57564;DHT22;43400;45.926;6.724;2023-04-01T03:49:12;5.90;99.90
57564;DHT22;43400;45.926;6.724;2023-04-01T03:51:43;5.80;99.90
57564;DHT22;43400;45.926;6.724;2023-04-01T03:54:15;5.80;99.90
57564;DHT22;43400;45.926;6.724;2023-04-01T03:56:47;5.80;99.90
57564;DHT22;43400;45.926;6.724;2023-04-01T03:59:19;5.80;99.90
57564;DHT22;43400;45.926;6.724;2023-04-01T04:01:50;5.90;99.90
57564;DHT22;43400;45.926;6.724;2023-04-01T04:04:22;6.00;99.90
57564;DHT22;43400;45.926;6.724;2023-04-01T04:06:54;6.00;99.90
57564;DHT22;43400;45.926;6.724;2023-04-01T04:09:26;6.00;99.90
57564;DHT22;43400;45.926;6.724;2023-04-01T04:11:57;6.00;99.90
57564;DHT22;43400;45.926;6.724;2023-04-01T04:14:29;6.10;99.90
57564;DHT22;43400;45.926;6.724;2023-04-01T04:17:00;6.10;99.90
57564;DHT22;43400;45.926;6.724;2023-04-01T04:19:32;6.20;99.90
57564;DHT22;43400;45.926;6.724;2023-04-01T04:22:04;6.10;99.90
57564;DHT22;43400;45.926;6.724;2023-04-01T04:24:36;6.00;99.90
57564;DHT22;43400;45.926;6.724;2023-04-01T04:27:07;6.00;99.90
57564;DHT22;43400;45.926;6.724;2023-04-01T04:29:39;6.10;99.90
57564;DHT22;43400;45.926;6.724;2023-04-01T04:32:11;6.00;99.90
57564;DHT22;43400;45.926;6.724;2023-04-01T04:34:42;6.00;99.90
57564;DHT22;43400;45.926;6.724;2023-04-01T04:37:14;6.00;99.90
57564;DHT22;43400;45.926;6.724;2023-04-01T04:39:46;6.00;99.90
57564;DHT22;43400;45.926;6.724;2023-04-01T04:42:17;5.90;99.90
57564;DHT22;43400;45.926;6.724;2023-04-01T04:44:49;5.90;99.90
57564;DHT22;43400;45.926;6.724;2023-04-01T04:47:21;5.80;99.90
57564;DHT22;43400;45.926;6.724;2023-04-01T04:49:52;5.80;99.90
57564;DHT22;43400;45.926;6.724;2023-04-01T04:52:24;5.90;99.90
57564;DHT22;43400;45.926;6.724;2023-04-01T04:54:56;5.80;99.90
57564;DHT22;43400;45.926;6.724;2023-04-01T04:57:27;5.80;99.90
57564;DHT22;43400;45.926;6.724;2023-04-01T04:59:58;5.80;99.90
57564;DHT22;43400;45.926;6.724;2023-04-01T05:02:30;5.80;99.90
57564;DHT22;43400;45.926;6.724;2023-04-01T05:05:01;5.90;99.90
57564;DHT22;43400;45.926;6.724;2023-04-01T05:07:33;5.90;99.90
57564;DHT22;43400;45.926;6.724;2023-04-01T05:10:05;5.90;99.90
57564;DHT22;43400;45.926;6.724;2023-04-01T05:12:37;5.80;99.90
57564;DHT22;43400;45.926;6.724;2023-04-01T05:15:09;5.80;99.90
57564;DHT22;43400;45.926;6.724;2023-04-01T05:17:40;5.80;99.90
57564;DHT22;43400;45.926;6.724;2023-04-01T05:20:13;5.90;99.90
57564;DHT22;43400;45.926;6.724;2023-04-01T05:22:45;5.90;99.90
57564;DHT22;43400;45.926;6.724;2023-04-01T05:25:16;5.90;99.90
57564;DHT22;43400;45.926;6.724;2023-04-01T05:27:48;5.90;99.90
57564;DHT22;43400;45.926;6.724;2023-04-01T05:30:20;6.00;99.90
57564;DHT22;43400;45.926;6.724;2023-04-01T05:32:52;5.90;99.90
57564;DHT22;43400;45.926;6.724;2023-04-01T05:35:24;5.90;99.90
57564;DHT22;43400;45.926;6.724;2023-04-01T05:37:55;5.90;99.90
57564;DHT22;43400;45.926;6.724;2023-04-01T05:40:28;5.90;99.90
57564;DHT22;43400;45.926;6.724;2023-04-01T05:42:59;5.90;99.90
57564;DHT22;43400;45.926;6.724;2023-04-01T05:45:31;5.90;99.90
57564;DHT22;43400;45.926;6.724;2023-04-01T05:48:03;6.00;99.90
57564;DHT22;43400;45.926;6.724;2023-04-01T05:50:35;6.00;99.90
57564;DHT22;43400;45.926;6.724;2023-04-01T05:53:06;6.00;99.90
57564;DHT22;43400;45.926;6.724;2023-04-01T05:55:39;6.00;99.90
57564;DHT22;43400;45.926;6.724;2023-04-01T05:58:10;6.00;99.90
57564;DHT22;43400;45.926;6.724;2023-04-01T06:00:42;6.00;99.90
57564;DHT22;43400;45.926;6.724;2023-04-01T06:03:13;5.90;99.90
57564;DHT22;43400;45.926;6.724;2023-04-01T06:05:45;5.90;99.90
57564;DHT22;43400;45.926;6.724;2023-04-01T06:08:18;5.90;99.90
57564;DHT22;43400;45.926;6.724;2023-04-01T06:14:10;5.90;99.90
57564;DHT22;43400;45.926;6.724;2023-04-01T06:19:43;5.80;99.90
57564;DHT22;43400;45.926;6.724;2023-04-01T06:22:27;5.90;99.90
57564;DHT22;43400;45.926;6.724;2023-04-01T06:28:24;5.90;99.90
57564;DHT22;43400;45.926;6.724;2023-04-01T06:39:36;6.10;99.90
57564;DHT22;43400;45.926;6.724;2023-04-01T06:45:25;6.00;99.90
57564;DHT22;43400;45.926;6.724;2023-04-01T06:50:44;5.90;99.90
57564;DHT22;43400;45.926;6.724;2023-04-01T06:53:29;6.00;99.90
57564;DHT22;43400;45.926;6.724;2023-04-01T06:56:07;6.00;99.90
57564;DHT22;43400;45.926;6.724;2023-04-01T07:01:28;6.10;99.90
57564;DHT22;43400;45.926;6.724;2023-04-01T07:04:06;6.10;99.90
57564;DHT22;43400;45.926;6.724;2023-04-01T07:07:01;6.10;99.90
57564;DHT22;43400;45.926;6.724;2023-04-01T07:09:38;6.10;99.90
57564;DHT22;43400;45.926;6.724;2023-04-01T07:12:18;6.10;99.90
57564;DHT22;43400;45.926;6.724;2023-04-01T07:14:53;6.10;99.90
57564;DHT22;43400;45.926;6.724;2023-04-01T07:17:36;6.10;99.90
57564;DHT22;43400;45.926;6.724;2023-04-01T07:20:23;6.20;99.90
57564;DHT22;43400;45.926;6.724;2023-04-01T07:22:59;6.20;99.90
57564;DHT22;43400;45.926;6.724;2023-04-01T07:25:41;6.20;99.90
57564;DHT22;43400;45.926;6.724;2023-04-01T07:28:16;6.20;99.90
57564;DHT22;43400;45.926;6.724;2023-04-01T07:33:21;6.20;99.90
57564;DHT22;43400;45.926;6.724;2023-04-01T07:36:05;6.10;99.90
57564;DHT22;43400;45.926;6.724;2023-04-01T07:38:55;6.10;99.90
57564;DHT22;43400;45.926;6.724;2023-04-01T07:41:50;6.20;99.90
57564;DHT22;43400;45.926;6.724;2023-04-01T07:50:12;6.40;99.90
57564;DHT22;43400;45.926;6.724;2023-04-01T07:53:03;6.30;99.90
57564;DHT22;43400;45.926;6.724;2023-04-01T07:59:27;6.20;99.90
57564;DHT22;43400;45.926;6.724;2023-04-01T08:07:20;6.80;99.90
57564;DHT22;43400;45.926;6.724;2023-04-01T08:12:53;7.10;99.90
57564;DHT22;43400;45.926;6.724;2023-04-01T08:15:53;7.00;99.90
57564;DHT22;43400;45.926;6.724;2023-04-01T08:21:23;7.00;99.90
57564;DHT22;43400;45.926;6.724;2023-04-01T08:23:57;7.00;99.90
57564;DHT22;43400;45.926;6.724;2023-04-01T08:26:44;7.00;99.90
57564;DHT22;43400;45.926;6.724;2023-04-01T08:29:26;7.00;99.90
57564;DHT22;43400;45.926;6.724;2023-04-01T08:32:12;6.80;99.90
57564;DHT22;43400;45.926;6.724;2023-04-01T08:34:50;6.80;99.90
57564;DHT22;43400;45.926;6.724;2023-04-01T08:37:28;6.70;99.90
57564;DHT22;43400;45.926;6.724;2023-04-01T09:15:51;8.30;99.90
57564;DHT22;43400;45.926;6.724;2023-04-01T09:30:13;9.70;99.90
57564;DHT22;43400;45.926;6.724;2023-04-01T09:38:53;10.50;99.90
57564;DHT22;43400;45.926;6.724;2023-04-01T09:41:32;10.60;97.10
57564;DHT22;43400;45.926;6.724;2023-04-01T09:44:18;10.60;93.50
57564;DHT22;43400;45.926;6.724;2023-04-01T09:50:23;9.70;94.30
57564;DHT22;43400;45.926;6.724;2023-04-01T09:53:14;9.30;96.30
57564;DHT22;43400;45.926;6.724;2023-04-01T10:01:42;9.20;97.20
57564;DHT22;43400;45.926;6.724;2023-04-01T10:15:28;8.90;97.70
57564;DHT22;43400;45.926;6.724;2023-04-01T10:38:55;12.50;94.90
57564;DHT22;43400;45.926;6.724;2023-04-01T10:45:02;12.50;88.10
57564;DHT22;43400;45.926;6.724;2023-04-01T10:51:04;12.50;89.70
57564;DHT22;43400;45.926;6.724;2023-04-01T11:26:44;11.90;75.50
57564;DHT22;43400;45.926;6.724;2023-04-01T11:29:48;11.60;80.00
57564;DHT22;43400;45.926;6.724;2023-04-01T11:41:32;10.60;83.30
57564;DHT22;43400;45.926;6.724;2023-04-01T11:49:29;10.10;84.10
57564;DHT22;43400;45.926;6.724;2023-04-01T11:55:35;9.80;86.50
57564;DHT22;43400;45.926;6.724;2023-04-01T11:58:22;9.80;87.00
57564;DHT22;43400;45.926;6.724;2023-04-01T12:07:06;9.80;88.80
57564;DHT22;43400;45.926;6.724;2023-04-01T12:18:54;12.60;83.80
57564;DHT22;43400;45.926;6.724;2023-04-01T12:22:28;14.10;78.60
57564;DHT22;43400;45.926;6.724;2023-04-01T12:24:49;15.20;77.70
57564;DHT22;43400;45.926;6.724;2023-04-01T12:27:41;15.70;75.20
57564;DHT22;43400;45.926;6.724;2023-04-01T12:50:45;14.30;66.50
57564;DHT22;43400;45.926;6.724;2023-04-01T13:17:08;15.30;63.70
57564;DHT22;43400;45.926;6.724;2023-04-01T13:28:59;18.70;57.40
57564;DHT22;43400;45.926;6.724;2023-04-01T13:43:48;18.70;55.00
57564;DHT22;43400;45.926;6.724;2023-04-01T13:58:32;19.70;50.80
57564;DHT22;43400;45.926;6.724;2023-04-01T14:10:46;18.60;51.00
57564;DHT22;43400;45.926;6.724;2023-04-01T14:43:31;14.30;62.50
57564;DHT22;43400;45.926;6.724;2023-04-01T14:49:21;13.90;63.90
57564;DHT22;43400;45.926;6.724;2023-04-01T14:51:54;13.70;65.20
57564;DHT22;43400;45.926;6.724;2023-04-01T14:54:37;13.60;65.10
57564;DHT22;43400;45.926;6.724;2023-04-01T14:57:13;13.90;65.30
57564;DHT22;43400;45.926;6.724;2023-04-01T15:03:00;14.10;61.10
57564;DHT22;43400;45.926;6.724;2023-04-01T15:05:49;13.90;61.00
57564;DHT22;43400;45.926;6.724;2023-04-01T15:08:29;13.90;60.80
57564;DHT22;43400;45.926;6.724;2023-04-01T15:14:01;13.50;61.60
57564;DHT22;43400;45.926;6.724;2023-04-01T15:16:46;13.40;61.00
57564;DHT22;43400;45.926;6.724;2023-04-01T15:28:39;14.10;58.60
57564;DHT22;43400;45.926;6.724;2023-04-01T15:43:11;13.60;65.20
57564;DHT22;43400;45.926;6.724;2023-04-01T15:48:51;13.40;63.90
57564;DHT22;43400;45.926;6.724;2023-04-01T16:00:02;12.60;64.90
57564;DHT22;43400;45.926;6.724;2023-04-01T16:02:48;12.40;67.30
57564;DHT22;43400;45.926;6.724;2023-04-01T16:11:14;11.30;70.40
57564;DHT22;43400;45.926;6.724;2023-04-01T16:16:41;10.70;70.80
57564;DHT22;43400;45.926;6.724;2023-04-01T16:19:31;10.50;72.00
57564;DHT22;43400;45.926;6.724;2023-04-01T16:22:25;10.30;74.20
57564;DHT22;43400;45.926;6.724;2023-04-01T16:25:33;10.00;76.90
57564;DHT22;43400;45.926;6.724;2023-04-01T16:31:29;9.40;80.10
57564;DHT22;43400;45.926;6.724;2023-04-01T16:37:19;9.20;84.30
57564;DHT22;43400;45.926;6.724;2023-04-01T16:40:15;9.10;82.40
57564;DHT22;43400;45.926;6.724;2023-04-01T16:42:58;9.20;86.20
57564;DHT22;43400;45.926;6.724;2023-04-01T16:51:52;9.00;90.60
57564;DHT22;43400;45.926;6.724;2023-04-01T16:54:45;8.90;91.00
57564;DHT22;43400;45.926;6.724;2023-04-01T17:00:03;8.70;92.70
57564;DHT22;43400;45.926;6.724;2023-04-01T17:03:12;8.70;92.70
57564;DHT22;43400;45.926;6.724;2023-04-01T17:11:27;8.40;94.60
57564;DHT22;43400;45.926;6.724;2023-04-01T17:14:09;8.30;93.60
57564;DHT22;43400;45.926;6.724;2023-04-01T17:19:48;8.10;96.60
57564;DHT22;43400;45.926;6.724;2023-04-01T17:25:27;7.90;97.10
57564;DHT22;43400;45.926;6.724;2023-04-01T17:28:41;7.80;99.00
57564;DHT22;43400;45.926;6.724;2023-04-01T17:31:36;7.90;99.90
57564;DHT22;43400;45.926;6.724;2023-04-01T17:48:23;7.80;99.90
57564;DHT22;43400;45.926;6.724;2023-04-01T17:57:23;7.80;99.90
57564;DHT22;43400;45.926;6.724;2023-04-01T18:00:06;7.70;99.90
57564;DHT22;43400;45.926;6.724;2023-04-01T18:02:54;7.60;99.90
57564;DHT22;43400;45.926;6.724;2023-04-01T18:05:45;7.60;99.90
57564;DHT22;43400;45.926;6.724;2023-04-01T18:08:46;7.50;99.90
57564;DHT22;43400;45.926;6.724;2023-04-01T18:19:46;7.40;99.90
57564;DHT22;43400;45.926;6.724;2023-04-01T18:28:08;7.40;99.90
57564;DHT22;43400;45.926;6.724;2023-04-01T18:30:40;7.30;99.90
57564;DHT22;43400;45.926;6.724;2023-04-01T18:38:44;7.20;99.90
57564;DHT22;43400;45.926;6.724;2023-04-01T18:41:34;7.10;99.90
57564;DHT22;43400;45.926;6.724;2023-04-01T18:49:48;7.00;99.90
57564;DHT22;43400;45.926;6.724;2023-04-01T18:52:34;6.90;99.90
57564;DHT22;43400;45.926;6.724;2023-04-01T18:55:29;6.90;99.90
57564;DHT22;43400;45.926;6.724;2023-04-01T18:58:25;6.80;99.90
57564;DHT22;43400;45.926;6.724;2023-04-01T19:06:48;6.70;99.90
57564;DHT22;43400;45.926;6.724;2023-04-01T19:09:29;6.60;99.90
57564;DHT22;43400;45.926;6.724;2023-04-01T19:15:03;6.40;99.90
57564;DHT22;43400;45.926;6.724;2023-04-01T19:17:58;6.40;99.90
57564;DHT22;43400;45.926;6.724;2023-04-01T19:27:20;6.30;99.90
57564;DHT22;43400;45.926;6.724;2023-04-01T19:30:37;6.30;99.90
57564;DHT22;43400;45.926;6.724;2023-04-01T19:36:10;6.20;99.90
57564;DHT22;43400;45.926;6.724;2023-04-01T19:47:47;5.90;99.90
57564;DHT22;43400;45.926;6.724;2023-04-01T19:50:33;5.90;99.90
57564;DHT22;43400;45.926;6.724;2023-04-01T19:53:19;5.80;99.90
57564;DHT22;43400;45.926;6.724;2023-04-01T19:56:17;5.70;99.90
57564;DHT22;43400;45.926;6.724;2023-04-01T19:59:24;5.80;99.90
57564;DHT22;43400;45.926;6.724;2023-04-01T20:05:38;5.80;99.90
57564;DHT22;43400;45.926;6.724;2023-04-01T20:17:44;5.80;99.90
57564;DHT22;43400;45.926;6.724;2023-04-01T20:20:26;5.80;99.90
57564;DHT22;43400;45.926;6.724;2023-04-01T20:25:45;5.70;99.90
57564;DHT22;43400;45.926;6.724;2023-04-01T20:36:38;5.50;99.90
57564;DHT22;43400;45.926;6.724;2023-04-01T20:59:02;5.60;99.90
57564;DHT22;43400;45.926;6.724;2023-04-01T21:04:25;5.60;99.90
57564;DHT22;43400;45.926;6.724;2023-04-01T21:08:01;5.60;99.90
57564;DHT22;43400;45.926;6.724;2023-04-01T21:24:55;5.40;99.90
57564;DHT22;43400;45.926;6.724;2023-04-01T21:33:46;5.30;99.90
57564;DHT22;43400;45.926;6.724;2023-04-01T21:36:35;5.40;99.90
57564;DHT22;43400;45.926;6.724;2023-04-01T21:42:17;5.40;99.90
57564;DHT22;43400;45.926;6.724;2023-04-01T22:04:59;5.30;99.90
57564;DHT22;43400;45.926;6.724;2023-04-01T22:11:23;5.20;99.90
57564;DHT22;43400;45.926;6.724;2023-04-01T22:13:44;5.20;99.90
57564;DHT22;43400;45.926;6.724;2023-04-01T22:16:54;5.20;99.90
57564;DHT22;43400;45.926;6.724;2023-04-01T22:25:45;5.20;99.90
57564;DHT22;43400;45.926;6.724;2023-04-01T22:31:00;5.30;99.90
57564;DHT22;43400;45.926;6.724;2023-04-01T22:48:13;5.30;99.90
57564;DHT22;43400;45.926;6.724;2023-04-01T22:54:10;5.30;99.90
57564;DHT22;43400;45.926;6.724;2023-04-01T22:57:14;5.30;99.90
57564;DHT22;43400;45.926;6.724;2023-04-01T23:00:13;5.40;99.90
57564;DHT22;43400;45.926;6.724;2023-04-01T23:05:22;5.30;99.90
57564;DHT22;43400;45.926;6.724;2023-04-01T23:11:22;5.50;99.90
57564;DHT22;43400;45.926;6.724;2023-04-01T23:14:12;5.50;99.90
57564;DHT22;43400;45.926;6.724;2023-04-01T23:20:17;5.60;99.90
57564;DHT22;43400;45.926;6.724;2023-04-01T23:26:15;5.60;99.90
57564;DHT22;43400;45.926;6.724;2023-04-01T23:28:53;5.60;99.90
57564;DHT22;43400;45.926;6.724;2023-04-01T23:31:39;5.70;99.90
57564;DHT22;43400;45.926;6.724;2023-04-01T23:36:45;5.60;99.90
57564;DHT22;43400;45.926;6.724;2023-04-01T23:39:29;5.60;99.90
57564;DHT22;43400;45.926;6.724;2023-04-01T23:42:14;5.60;99.90
57564;DHT22;43400;45.926;6.724;2023-04-01T23:44:49;5.50;99.90
57564;DHT22;43400;45.926;6.724;2023-04-01T23:47:31;5.40;99.90
57564;DHT22;43400;45.926;6.724;2023-04-01T23:50:10;5.40;99.90
57564;DHT22;43400;45.926;6.724;2023-04-01T23:52:47;5.50;99.90
57564;DHT22;43400;45.926;6.724;2023-04-01T23:55:28;5.50;99.90
